Time;durP1;ratioP1;P1;durP2;ratioP2;P2;SDS_P1;SDS_P2;PMS_P1;PMS_P2;Temp;Humidity;BMP_temperature;BMP_pressure;BME280_temperature;BME280_humidity;BME280_pressure;Samples;Min_cycle;Max_cycle;Signal;HPM_P1;HPM_P2
2022/02/02 00:02:12;;;;;;;15.77;7.90;;;;;;;4.53;83.53;99157.44;5062066;28;20045;-76
2022/02/02 00:04:32;;;;;;;15.17;7.63;;;;;;;4.35;83.95;99158.13;5060049;28;20349;-76
2022/02/02 00:09:27;;;;;;;17.87;8.67;;;;;;;4.40;84.06;99158.53;5064638;28;20041;-77
2022/02/02 00:14:47;;;;;;;23.97;8.70;;;;;;;4.40;83.64;99139.34;5063658;28;20112;-77
2022/02/02 00:17:30;;;;;;;16.35;7.85;;;;;;;4.42;84.27;99147.91;5068683;28;20119;-77
2022/02/02 00:20:24;;;;;;;12.45;7.35;;;;;;;4.46;83.96;99150.13;5065912;28;20036;-77
2022/02/02 00:22:43;;;;;;;14.45;7.53;;;;;;;4.55;83.69;99148.47;5074020;28;20052;-77
2022/02/02 00:25:15;;;;;;;11.80;7.13;;;;;;;4.40;83.74;99148.03;5062751;28;20040;-77
2022/02/02 00:27:43;;;;;;;13.38;7.40;;;;;;;4.32;84.37;99152.31;5069442;28;20341;-77
2022/02/02 00:30:13;;;;;;;14.97;7.87;;;;;;;4.22;83.10;99099.91;5062114;28;20385;-77
2022/02/02 00:33:11;;;;;;;9.52;6.18;;;;;;;4.42;83.66;99137.44;5060421;28;20045;-77
2022/02/02 00:35:30;;;;;;;13.38;6.97;;;;;;;4.58;83.24;99145.56;5066540;28;20090;-77
2022/02/02 00:37:56;;;;;;;12.80;6.53;;;;;;;4.55;83.02;99135.34;5068469;28;20033;-77
2022/02/02 00:40:21;;;;;;;20.67;8.50;;;;;;;4.43;83.65;99134.66;5059408;28;20078;-77
2022/02/02 00:42:50;;;;;;;12.40;7.68;;;;;;;4.23;84.38;99121.69;5058406;28;20383;-77
2022/02/02 00:45:15;;;;;;;17.35;9.10;;;;;;;4.44;83.68;99145.97;5070578;28;20047;-77
2022/02/02 00:47:46;;;;;;;16.58;8.15;;;;;;;4.46;83.90;99137.00;5067576;28;21330;-77
2022/02/02 00:50:12;;;;;;;14.77;7.13;;;;;;;4.29;84.50;99134.25;5063295;28;20028;-77
2022/02/02 00:52:37;;;;;;;9.80;6.47;;;;;;;4.36;84.57;99133.56;5059907;28;20040;-77
2022/02/02 00:55:05;;;;;;;11.23;5.77;;;;;;;4.29;84.98;99134.25;5063515;28;20246;-77
2022/02/02 00:57:30;;;;;;;10.10;6.00;;;;;;;4.55;83.69;99131.91;5066919;28;20041;-77
2022/02/02 00:59:57;;;;;;;9.57;5.27;;;;;;;4.15;84.83;99109.25;5062570;28;20087;-77
2022/02/02 01:02:23;;;;;;;10.60;6.33;;;;;;;4.24;85.16;99112.88;5064348;28;20041;-77
2022/02/02 01:04:49;;;;;;;11.10;6.17;;;;;;;4.12;84.09;99107.72;5062374;28;20100;-77
2022/02/02 01:07:59;;;;;;;13.32;6.15;;;;;;;4.27;84.81;99112.59;5062889;28;20223;-77
2022/02/02 01:20:06;;;;;;;13.05;5.93;;;;;;;4.38;84.55;99109.84;5070061;28;20060;-77
2022/02/02 01:27:59;;;;;;;12.80;6.25;;;;;;;4.37;84.77;99101.13;5068782;28;20356;-77
2022/02/02 01:30:25;;;;;;;13.63;7.15;;;;;;;4.49;84.44;99105.28;5069752;28;20040;-77
2022/02/02 01:32:52;;;;;;;13.07;6.43;;;;;;;4.44;84.02;99068.16;5067425;28;20013;-77
2022/02/02 01:35:18;;;;;;;13.68;6.20;;;;;;;4.68;83.23;99091.31;5068865;28;20040;-77
2022/02/02 01:37:47;;;;;;;16.17;6.88;;;;;;;4.62;83.12;99089.25;5070528;28;20036;-77
2022/02/02 01:40:22;;;;;;;9.57;5.72;;;;;;;4.57;83.61;99082.78;5083745;28;20086;-77
2022/02/02 01:42:56;;;;;;;12.60;6.68;;;;;;;4.36;84.18;99057.53;5078871;28;20041;-77
2022/02/02 01:45:37;;;;;;;14.68;6.82;;;;;;;4.74;82.93;99087.31;5067545;28;20029;-77
2022/02/02 01:50:42;;;;;;;10.98;6.03;;;;;;;4.66;82.30;99081.94;5068198;28;20016;-77
2022/02/02 01:53:19;;;;;;;10.55;6.00;;;;;;;4.66;83.49;99074.06;5069328;28;20077;-77
2022/02/02 01:55:45;;;;;;;9.63;5.87;;;;;;;4.74;82.65;99072.38;5083608;28;20032;-77
2022/02/02 02:00:56;;;;;;;12.10;5.53;;;;;;;4.73;81.63;99054.19;5069050;28;20075;-77
2022/02/02 02:03:22;;;;;;;9.13;5.60;;;;;;;4.86;81.53;99067.81;5073992;28;20029;-77
2022/02/02 02:05:47;;;;;;;8.90;5.87;;;;;;;4.75;81.34;99044.38;5081909;28;20221;-77
2022/02/02 02:08:14;;;;;;;11.60;6.33;;;;;;;4.92;81.25;99064.63;5078516;28;20039;-77
2022/02/02 02:10:40;;;;;;;13.95;6.30;;;;;;;4.81;80.97;99042.00;5069996;28;20145;-78
2022/02/02 02:15:34;;;;;;;9.18;5.20;;;;;;;4.82;82.63;99046.28;5068966;28;20040;-77
2022/02/02 02:18:01;;;;;;;8.10;4.93;;;;;;;4.88;81.36;99044.06;5069427;28;20025;-77
2022/02/02 02:20:27;;;;;;;13.23;5.13;;;;;;;4.91;80.92;99036.72;5070772;28;20028;-77
2022/02/02 02:22:52;;;;;;;9.20;4.83;;;;;;;4.74;81.33;99027.81;5068718;28;20052;-77
2022/02/02 02:25:23;;;;;;;10.07;5.77;;;;;;;4.73;81.97;99030.56;5071919;28;20043;-77
2022/02/02 02:27:51;;;;;;;13.32;6.60;;;;;;;4.69;82.27;99029.19;5069455;28;20047;-77
2022/02/02 02:30:42;;;;;;;11.93;6.40;;;;;;;4.69;81.81;99029.19;5063831;28;20323;-77
2022/02/02 02:57:42;;;;;;;9.05;5.40;;;;;;;4.42;83.33;99022.09;5065517;28;20060;-77
2022/02/02 03:59:14;;;;;;;9.27;5.82;;;;;;;4.02;86.32;98967.22;5067693;28;20306;-77
2022/02/02 04:07:24;;;;;;;13.17;7.27;;;;;;;4.31;84.89;98977.69;5060867;28;20092;-77
2022/02/02 04:09:50;;;;;;;11.83;6.47;;;;;;;4.21;85.66;98971.63;5061499;28;20034;-77
2022/02/02 05:11:03;;;;;;;12.13;8.15;;;;;;;4.95;82.12;98971.69;5070527;28;20016;-77
2022/02/02 05:53:12;;;;;;;15.20;8.35;;;;;;;4.93;82.13;98998.06;5070437;28;20036;-76
2022/02/02 05:55:40;;;;;;;15.20;8.65;;;;;;;5.00;80.84;98995.69;5071969;28;20037;-76
2022/02/02 05:58:09;;;;;;;15.98;9.13;;;;;;;4.90;81.89;99000.16;5073358;28;20091;-77
2022/02/02 06:00:37;;;;;;;18.15;9.63;;;;;;;4.90;82.35;99011.47;5074764;28;20045;-77
2022/02/02 06:03:09;;;;;;;12.63;8.32;;;;;;;4.99;82.02;99013.22;5068657;28;20032;-77
2022/02/02 06:05:36;;;;;;;18.17;9.25;;;;;;;5.13;80.83;99017.16;5071282;28;20044;-77
2022/02/02 06:08:02;;;;;;;20.52;10.00;;;;;;;5.04;81.63;99018.03;5071736;28;20031;-77
2022/02/02 06:10:30;;;;;;;14.88;9.20;;;;;;;4.98;81.80;99022.06;5067998;28;20036;-77
2022/02/02 06:12:59;;;;;;;30.83;13.30;;;;;;;5.01;82.23;99015.69;5069064;28;20021;-76
2022/02/02 06:15:25;;;;;;;28.20;14.00;;;;;;;4.75;82.29;99010.28;5072962;28;20039;-77
2022/02/02 06:17:53;;;;;;;28.73;15.90;;;;;;;4.89;81.44;99020.31;5074879;28;20234;-77
2022/02/02 06:20:19;;;;;;;30.30;16.90;;;;;;;4.87;82.48;99024.03;5066404;28;20036;-77
2022/02/02 06:23:13;;;;;;;49.78;19.73;;;;;;;4.86;82.00;99032.88;5075909;28;20100;-77
2022/02/02 06:25:46;;;;;;;52.30;18.00;;;;;;;4.81;82.75;99031.50;5073455;28;20407;-77
2022/02/02 06:28:19;;;;;;;56.47;19.85;;;;;;;4.63;82.74;99009.63;5068795;28;20104;-77
2022/02/02 06:30:45;;;;;;;29.42;13.32;;;;;;;4.62;83.82;99023.69;5071678;28;21480;-77
2022/02/02 06:33:11;;;;;;;26.17;12.88;;;;;;;4.54;83.33;99035.88;5075102;28;20025;-77
2022/02/02 06:35:38;;;;;;;24.63;12.00;;;;;;;4.56;84.35;99033.94;5069163;28;20036;-77
2022/02/02 06:38:05;;;;;;;33.60;14.48;;;;;;;4.51;84.62;99041.38;5064770;28;20025;-77
2022/02/02 06:40:33;;;;;;;51.35;16.15;;;;;;;4.56;83.71;99011.16;5073530;28;20344;-77
2022/02/02 06:42:59;;;;;;;40.47;13.70;;;;;;;4.67;82.99;99039.00;5064193;28;20380;-77
2022/02/02 06:45:26;;;;;;;35.30;13.88;;;;;;;4.58;83.90;99016.25;5076269;28;20096;-77
2022/02/02 06:47:51;;;;;;;38.90;14.30;;;;;;;4.54;83.90;99017.50;5074713;28;20028;-77
2022/02/02 06:53:06;;;;;;;26.50;13.13;;;;;;;4.63;83.67;99043.72;5070976;28;20016;-77
2022/02/02 06:55:41;;;;;;;20.43;12.20;;;;;;;4.39;84.42;99015.34;5068107;28;20040;-77
2022/02/02 06:58:52;;;;;;;18.42;11.70;;;;;;;4.62;84.80;99041.22;5070173;28;20062;-77
2022/02/02 07:13:09;;;;;;;46.38;26.45;;;;;;;4.57;83.98;99040.81;5073529;28;20196;-77
2022/02/02 07:18:34;;;;;;;39.90;19.65;;;;;;;4.40;85.10;99055.47;5065455;28;20028;-77
2022/02/02 07:26:53;;;;;;;27.50;15.10;;;;;;;4.11;88.31;99055.47;5068877;28;20035;-77
2022/02/02 07:29:31;;;;;;;;;;;;;;;4.13;87.89;99059.59;5068340;28;20044;-77
2022/02/02 07:37:32;;;;;;;26.57;13.63;;;;;;;4.06;88.02;99063.72;5069005;28;20566;-77
2022/02/02 07:40:02;;;;;;;22.60;12.73;;;;;;;3.93;87.97;99055.31;5074938;28;20071;-77
2022/02/02 07:42:28;;;;;;;21.87;13.33;;;;;;;3.93;87.81;99057.09;5066917;28;20040;-77
2022/02/02 07:45:02;;;;;;;23.47;14.20;;;;;;;3.93;88.76;99057.94;5087326;28;20031;-77
2022/02/02 07:47:31;;;;;;;23.05;13.27;;;;;;;4.18;87.34;99069.69;5070938;28;20059;-77
2022/02/02 07:50:01;;;;;;;20.93;12.37;;;;;;;4.26;86.64;99067.22;5074024;28;20032;-77
2022/02/02 07:52:29;;;;;;;22.65;12.40;;;;;;;4.40;85.74;99069.41;5071786;28;20024;-77
2022/02/02 07:54:57;;;;;;;20.05;12.68;;;;;;;4.26;84.87;99069.84;5073778;28;20036;-77
2022/02/02 07:57:27;;;;;;;24.92;13.98;;;;;;;4.07;85.51;99075.03;5074822;28;20017;-77
2022/02/02 07:59:56;;;;;;;23.87;13.97;;;;;;;3.94;86.84;99066.63;5074956;28;20099;-77
2022/02/02 08:02:32;;;;;;;23.63;13.10;;;;;;;4.13;86.52;99058.78;5072143;28;20031;-77
2022/02/02 08:05:00;;;;;;;30.77;15.80;;;;;;;4.08;86.61;99064.41;5075563;28;20081;-77
2022/02/02 08:07:31;;;;;;;21.63;12.50;;;;;;;3.96;86.70;99041.13;5074829;28;20031;-77
2022/02/02 08:10:12;;;;;;;19.93;12.67;;;;;;;4.00;86.07;99069.53;5073708;28;20032;-77
2022/02/02 08:12:45;;;;;;;21.83;13.80;;;;;;;3.89;87.12;99048.69;5073321;28;20037;-76
2022/02/02 08:15:12;;;;;;;25.43;16.77;;;;;;;3.95;86.73;99061.25;5073729;28;20043;-77
2022/02/02 08:17:38;;;;;;;27.87;16.37;;;;;;;4.12;85.47;99064.97;5074291;28;20059;-77
2022/02/02 08:20:05;;;;;;;24.53;15.20;;;;;;;4.39;85.55;99074.78;5075093;28;20033;-77
2022/02/02 08:22:30;;;;;;;24.90;13.70;;;;;;;4.46;85.03;99074.09;5072756;28;20020;-77
2022/02/02 08:24:56;;;;;;;25.47;14.50;;;;;;;4.37;84.71;99076.72;5074736;28;20032;-77
2022/02/02 08:27:22;;;;;;;23.93;14.40;;;;;;;4.17;85.33;99062.81;5074014;28;20333;-77
2022/02/02 08:29:48;;;;;;;21.73;13.52;;;;;;;4.36;85.73;99073.28;5074216;28;20024;-77
2022/02/02 08:32:15;;;;;;;25.73;15.27;;;;;;;4.23;85.59;99072.72;5073175;28;20332;-77
2022/02/02 08:34:46;;;;;;;24.20;15.40;;;;;;;4.33;85.60;99083.22;5073868;28;20103;-77
2022/02/02 08:37:11;;;;;;;41.87;19.77;;;;;;;4.38;85.47;99084.44;5073160;28;20021;-76
2022/02/02 08:42:05;;;;;;;42.43;21.70;;;;;;;4.21;85.53;99079.91;5075612;28;20024;-76
2022/02/02 08:44:43;;;;;;;41.57;22.67;;;;;;;4.21;85.63;99073.84;5072833;28;20233;-77
2022/02/02 08:47:11;;;;;;;52.80;27.00;;;;;;;4.65;84.08;99094.22;5074318;28;21583;-77
2022/02/02 08:49:45;;;;;;;42.47;23.50;;;;;;;4.36;84.83;99081.13;5072732;28;20087;-77
2022/02/02 08:52:10;;;;;;;40.75;23.33;;;;;;;4.69;84.42;99100.84;5073792;28;20091;-77
2022/02/02 08:54:45;;;;;;;47.97;25.60;;;;;;;4.79;84.01;99099.03;5075042;28;20040;-77
2022/02/02 09:00:22;;;;;;;64.13;31.83;;;;;;;4.88;82.69;99097.34;5038388;28;20060;-77
2022/02/02 09:05:19;;;;;;;58.20;31.83;;;;;;;4.90;82.30;99105.06;5071336;28;20047;-77
2022/02/02 09:05:41;;;;;;;52.28;29.95;;;;;;;4.82;82.32;99093.50;5078534;28;20025;-77
2022/02/02 09:08:07;;;;;;;56.77;29.10;;;;;;;4.73;83.20;99089.09;5077441;28;20025;-76
2022/02/02 09:24:00;;;;;;;33.70;15.73;;;;;;;4.43;85.43;99094.50;5078795;28;20009;-77
2022/02/02 09:34:57;;;;;;;28.52;15.70;;;;;;;4.42;86.22;99079.75;5056682;28;20109;-77
2022/02/02 09:37:24;;;;;;;27.93;16.03;;;;;;;4.42;87.15;99085.00;5070220;28;20382;-77
2022/02/02 09:40:01;;;;;;;28.43;15.37;;;;;;;4.33;87.36;99065.69;5082497;28;20214;-77
2022/02/02 09:42:31;;;;;;;29.10;17.43;;;;;;;4.72;86.31;99082.19;5082141;28;20039;-77
2022/02/02 09:44:58;;;;;;;36.17;22.87;;;;;;;4.76;85.93;99061.75;5082261;28;20036;-77
2022/02/02 09:47:30;;;;;;;34.70;19.97;;;;;;;4.35;85.87;99032.31;5082090;28;20056;-75
2022/02/02 09:50:03;;;;;;;35.70;18.77;;;;;;;4.61;86.30;99060.56;5082426;28;20028;-77
2022/02/02 09:52:36;;;;;;;34.97;19.87;;;;;;;4.32;87.27;99053.56;5080128;28;20036;-76
2022/02/02 09:55:46;;;;;;;38.80;21.30;;;;;;;4.46;88.08;99060.16;5081894;28;20036;-77
2022/02/02 10:03:01;;;;;;;32.80;17.83;;;;;;;4.11;89.19;99042.34;5081173;28;20032;-76
2022/02/02 10:05:34;;;;;;;31.13;17.17;;;;;;;4.15;89.90;99062.91;5082187;28;20021;-77
2022/02/02 10:15:46;;;;;;;20.63;12.20;;;;;;;4.12;91.74;99044.84;5077074;28;20261;-77
2022/02/02 10:18:22;;;;;;;23.03;12.93;;;;;;;4.29;91.81;99040.72;5076134;28;20028;-77
2022/02/02 10:20:53;;;;;;;26.00;13.63;;;;;;;4.43;91.07;99021.94;5075212;28;20029;-76
2022/02/02 10:23:28;;;;;;;24.07;13.07;;;;;;;4.57;90.42;99043.44;5075337;28;20051;-77
2022/02/02 10:25:59;;;;;;;22.73;12.80;;;;;;;4.62;89.57;99038.59;5074745;28;20032;-77
2022/02/02 10:28:31;;;;;;;21.67;12.13;;;;;;;4.54;90.31;99034.06;5076086;28;20024;-77
2022/02/02 10:31:05;;;;;;;21.67;12.27;;;;;;;4.23;90.49;98983.63;5075875;28;20036;-77
2022/02/02 10:33:33;;;;;;;32.03;14.30;;;;;;;4.34;91.08;99035.91;5073904;28;20024;-76
2022/02/02 10:36:08;;;;;;;27.13;14.20;;;;;;;4.31;92.08;99027.47;5075824;28;20029;-77
2022/02/02 10:38:49;;;;;;;25.63;13.93;;;;;;;4.44;91.82;99009.66;5076323;28;20028;-77
2022/02/02 10:41:25;;;;;;;29.03;14.67;;;;;;;4.44;91.53;99004.41;5075629;28;20037;-76
2022/02/02 10:43:57;;;;;;;26.33;14.43;;;;;;;4.63;91.39;99027.16;5075719;28;20230;-76
2022/02/02 10:49:19;;;;;;;27.63;14.70;;;;;;;4.73;89.54;99017.47;5074104;28;20036;-77
2022/02/02 10:52:05;;;;;;;29.43;16.00;;;;;;;4.55;90.76;99019.16;5073754;28;20059;-76
2022/02/02 11:00:10;;;;;;;26.03;15.10;;;;;;;4.35;91.89;99000.84;5076490;28;20052;-77
2022/02/02 11:08:05;;;;;;;23.63;13.43;;;;;;;4.80;91.42;99019.38;5074896;28;20394;-77
2022/02/02 11:10:32;;;;;;;23.50;13.30;;;;;;;4.70;90.96;99010.69;5076529;28;20021;-77
2022/02/02 11:12:58;;;;;;;22.07;12.53;;;;;;;4.67;91.66;99013.63;5075084;28;20326;-77
2022/02/02 11:15:37;;;;;;;26.37;13.60;;;;;;;4.73;91.76;99018.28;5074947;28;20036;-76
2022/02/02 11:18:16;;;;;;;25.00;14.70;;;;;;;4.43;92.50;99002.78;5074102;28;20023;-77
2022/02/02 11:20:42;;;;;;;31.00;16.27;;;;;;;4.59;92.72;99021.34;5076489;28;20227;-76
2022/02/02 11:23:08;;;;;;;31.00;17.30;;;;;;;4.54;92.62;99004.41;5073988;28;20032;-76
2022/02/02 11:25:38;;;;;;;32.17;18.47;;;;;;;4.54;92.88;99018.34;5074684;28;20109;-77
2022/02/02 11:28:06;;;;;;;35.23;19.43;;;;;;;4.63;93.19;99014.03;5076275;28;20059;-77
2022/02/02 11:30:32;;;;;;;36.50;19.13;;;;;;;4.51;92.83;99013.38;5075525;28;20176;-76
2022/02/02 11:33:01;;;;;;;38.13;21.60;;;;;;;4.62;93.59;99013.22;5074301;28;20028;-77
2022/02/02 11:35:46;;;;;;;38.40;19.50;;;;;;;4.87;92.88;99005.69;5074730;28;20031;-77
2022/02/02 11:38:23;;;;;;;36.65;20.15;;;;;;;4.88;92.05;98987.16;5073032;28;20334;-77
2022/02/02 11:41:05;;;;;;;36.70;19.40;;;;;;;4.89;92.38;98998.50;5075214;28;20028;-77
2022/02/02 11:43:58;;;;;;;33.95;19.02;;;;;;;4.76;91.78;98983.91;5072336;28;20035;-77
2022/02/02 11:46:44;;;;;;;35.53;20.20;;;;;;;4.93;91.77;98994.59;5073628;28;20112;-77
2022/02/02 11:49:19;;;;;;;36.10;20.33;;;;;;;5.10;91.43;98992.03;5074894;28;20097;-77
2022/02/02 11:51:53;;;;;;;33.17;18.80;;;;;;;4.99;91.63;98988.78;5075193;28;20094;-77
2022/02/02 11:54:42;;;;;;;37.83;19.67;;;;;;;5.13;91.18;98991.75;5073788;28;20111;-77
2022/02/02 11:59:52;;;;;;;34.83;18.67;;;;;;;4.91;91.91;98991.31;5074481;28;20158;-77
2022/02/02 12:02:33;;;;;;;43.28;23.10;;;;;;;4.93;92.26;98979.69;5073370;28;20029;-77
2022/02/02 12:05:18;;;;;;;35.65;19.13;;;;;;;4.88;93.16;98984.56;5074537;28;20091;-77
2022/02/02 12:07:50;;;;;;;37.65;21.08;;;;;;;5.18;93.33;98975.56;5073915;28;20428;-77
2022/02/02 13:00:07;;;;;;;27.10;15.95;;;;;;;5.47;90.93;98970.16;5072884;28;20054;-77
2022/02/02 13:02:39;;;;;;;28.80;16.33;;;;;;;5.16;92.12;98938.16;5073174;28;20318;-77
2022/02/02 13:05:06;;;;;;;31.50;17.08;;;;;;;5.50;90.17;98971.69;5072143;28;20028;-77
2022/02/02 13:07:32;;;;;;;27.98;15.75;;;;;;;5.26;89.32;98954.69;5073323;28;20044;-78
2022/02/02 13:10:00;;;;;;;34.35;18.05;;;;;;;5.32;90.43;98967.22;5073431;28;20207;-78
2022/02/02 13:12:42;;;;;;;30.40;16.63;;;;;;;5.34;89.81;98967.91;5077094;28;20089;-79
2022/02/02 13:20:40;;;;;;;30.35;15.75;;;;;;;5.32;90.07;98975.09;5075491;28;20092;-77
2022/02/02 13:23:15;;;;;;;29.50;16.37;;;;;;;5.55;91.09;98965.00;5082383;28;20025;-77
2022/02/02 13:25:43;;;;;;;30.33;17.40;;;;;;;5.59;89.55;98961.09;5081442;28;20056;-76
2022/02/02 13:28:09;;;;;;;31.17;17.90;;;;;;;5.72;88.01;98971.22;5076740;28;20069;-76
2022/02/02 13:30:52;;;;;;;27.25;15.55;;;;;;;5.45;89.85;98972.13;5077281;28;20043;-77
2022/02/02 13:33:33;;;;;;;32.80;16.40;;;;;;;5.30;88.78;98942.94;5077778;28;20028;-76
2022/02/02 13:39:12;;;;;;;35.13;17.58;;;;;;;5.38;89.21;98939.56;5077880;28;20044;-78
2022/02/02 13:45:36;;;;;;;29.02;15.20;;;;;;;5.59;88.73;98962.91;5076456;28;20136;-79
2022/02/02 13:53:09;;;;;;;35.28;19.20;;;;;;;5.40;89.11;98964.69;5076195;28;20039;-79
2022/02/02 14:00:59;;;;;;;28.75;14.98;;;;;;;5.12;88.99;98947.28;5076808;28;20055;-76
2022/02/02 14:25:37;;;;;;;33.55;16.95;;;;;;;5.02;90.50;98952.59;5076119;28;20093;-76
2022/02/02 14:33:34;;;;;;;;;;;;;;;5.66;88.72;98970.03;5081851;28;20028;-79
2022/02/02 14:36:03;;;;;;;33.43;17.30;;;;;;;5.38;88.26;98960.56;5081299;28;19951;-79
2022/02/02 14:39:19;;;;;;;34.00;17.70;;;;;;;5.47;88.42;98974.59;5078981;28;20247;-79
2022/02/02 14:44:33;;;;;;;37.50;18.67;;;;;;;5.43;88.70;98979.31;5040326;28;20119;-78
2022/02/02 14:47:06;;;;;;;39.83;22.33;;;;;;;5.19;88.19;98956.22;5076886;28;20322;-79
2022/02/02 14:49:43;;;;;;;41.80;20.50;;;;;;;5.05;89.25;98952.28;5081415;28;20042;-79
2022/02/02 15:24:24;;;;;;;47.33;20.25;;;;;;;5.94;81.25;98968.19;5078257;28;20031;-79
2022/02/02 15:32:06;;;;;;;74.78;33.83;;;;;;;5.81;80.72;98965.09;5078477;28;20504;-79
2022/02/02 15:34:40;;;;;;;60.60;30.83;;;;;;;6.05;79.46;98970.56;5079692;28;20032;-79
2022/02/02 15:39:37;;;;;;;87.93;43.25;;;;;;;6.09;79.50;98985.06;5078579;28;19916;-78
2022/02/02 15:42:23;;;;;;;89.47;38.10;;;;;;;6.26;79.03;98986.03;5078685;28;20048;-79
2022/02/02 15:58:19;;;;;;;37.80;18.23;;;;;;;6.12;79.38;98983.94;5081001;28;20292;-78
2022/02/02 16:03:36;;;;;;;32.22;16.00;;;;;;;6.10;77.65;98985.88;5082893;28;20036;-79
2022/02/02 16:06:24;;;;;;;35.67;17.50;;;;;;;6.18;76.98;98998.25;5078258;28;20032;-79
2022/02/02 16:09:02;;;;;;;41.47;21.45;;;;;;;5.99;77.71;98999.25;5078581;28;20048;-79
2022/02/02 16:11:30;;;;;;;43.22;20.73;;;;;;;6.03;77.72;99003.25;5097340;28;20067;-79
2022/02/02 16:14:03;;;;;;;39.90;18.40;;;;;;;6.13;76.66;98995.28;5076131;28;20048;-79
2022/02/02 16:18:59;;;;;;;44.92;18.63;;;;;;;6.42;73.81;99003.75;5079027;28;20024;-78
2022/02/02 16:35:49;;;;;;;72.53;31.70;;;;;;;6.38;71.23;98995.34;5078749;28;20031;-79
2022/02/02 16:38:17;;;;;;;42.00;19.70;;;;;;;6.42;70.19;98974.00;5077991;28;20052;-79
2022/02/02 16:40:45;;;;;;;27.92;15.55;;;;;;;6.37;73.50;99019.97;5079142;28;20020;-76
2022/02/02 16:43:13;;;;;;;30.40;16.88;;;;;;;5.91;76.00;99026.28;5077143;28;20070;-76
2022/02/02 16:45:50;;;;;;;39.40;19.48;;;;;;;5.74;77.82;99021.81;5077829;28;20028;-75
2022/02/02 16:48:17;;;;;;;38.83;19.77;;;;;;;5.64;79.00;99021.06;5082984;28;20342;-75
2022/02/02 16:50:46;;;;;;;42.90;21.07;;;;;;;5.59;79.61;99002.28;5083011;28;20020;-75
2022/02/02 16:56:08;;;;;;;44.33;20.87;;;;;;;5.50;81.12;99027.63;5081760;28;20024;-76
2022/02/02 17:31:08;;;;;;;46.23;21.47;;;;;;;5.04;84.58;99055.59;5081959;28;20048;-76
2022/02/02 17:33:44;;;;;;;43.47;22.30;;;;;;;5.03;84.52;99050.50;5082212;28;20091;-76
2022/02/02 17:36:22;;;;;;;42.57;21.63;;;;;;;4.99;85.35;99057.81;5082169;28;20029;-77
2022/02/02 17:41:34;;;;;;;45.17;22.47;;;;;;;5.09;83.64;99065.66;5081532;28;20033;-76
2022/02/02 17:44:25;;;;;;;44.60;23.25;;;;;;;4.93;84.03;99071.50;5082440;28;20107;-76
2022/02/02 18:03:59;;;;;;;50.10;23.92;;;;;;;4.37;85.45;99046.09;5082718;28;20078;-79
2022/02/02 18:19:32;;;;;;;64.83;29.90;;;;;;;4.44;87.12;99057.69;5082239;28;20029;-75
2022/02/02 18:21:58;;;;;;;67.07;30.60;;;;;;;4.45;86.59;99061.94;5079169;28;20073;-76
2022/02/02 18:24:30;;;;;;;66.33;30.73;;;;;;;4.53;86.04;99052.56;5080762;28;20084;-77
2022/02/02 18:29:30;;;;;;;70.27;33.50;;;;;;;4.56;85.19;99050.47;5081206;28;20309;-76
2022/02/02 18:32:16;;;;;;;74.33;35.10;;;;;;;4.64;84.87;99047.97;5081543;28;20044;-76
2022/02/02 18:34:53;;;;;;;78.40;36.57;;;;;;;4.74;83.29;99054.03;5081592;28;20024;-76
2022/02/02 18:45:38;;;;;;;77.45;37.13;;;;;;;4.70;83.11;99076.25;5075824;28;20039;-76
2022/02/02 18:59:08;;;;;;;101.13;43.83;;;;;;;4.30;85.69;99093.97;5075715;28;20040;-76
2022/02/02 19:01:44;;;;;;;95.53;42.73;;;;;;;4.26;86.82;99089.97;5075160;28;20048;-77
2022/02/02 20:12:04;;;;;;;96.33;42.53;;;;;;;4.73;81.27;99110.06;5074919;28;20036;-77
2022/02/02 20:14:29;;;;;;;91.40;41.20;;;;;;;4.82;80.47;99116.28;5074461;28;20027;-76
2022/02/02 20:16:55;;;;;;;80.40;38.97;;;;;;;4.75;79.52;99113.38;5073982;28;20025;-76
2022/02/02 20:19:20;;;;;;;85.65;39.92;;;;;;;4.79;79.92;99117.38;5074147;28;20074;-76
2022/02/02 20:21:50;;;;;;;85.23;40.20;;;;;;;4.16;79.52;99063.72;5073900;28;20080;-78
2022/02/02 20:24:20;;;;;;;94.00;39.80;;;;;;;4.19;81.41;99115.91;5074600;28;20032;-79
2022/02/02 20:26:48;;;;;;;83.97;40.03;;;;;;;3.79;83.56;99101.06;5073063;28;20195;-79
2022/02/02 20:29:14;;;;;;;87.57;40.03;;;;;;;4.06;83.71;99112.69;5074157;28;20044;-78
2022/02/02 20:31:40;;;;;;;82.63;38.93;;;;;;;4.09;83.41;99126.34;5074478;28;20406;-78
2022/02/02 20:34:06;;;;;;;135.80;48.13;;;;;;;4.15;83.78;99125.78;5071449;28;20052;-76
2022/02/02 20:36:32;;;;;;;117.23;43.67;;;;;;;4.31;82.88;99130.53;5075180;28;20326;-76
2022/02/02 20:38:57;;;;;;;97.20;41.23;;;;;;;4.40;80.53;99110.53;5073262;28;20043;-76
2022/02/02 20:41:23;;;;;;;88.47;42.93;;;;;;;4.37;80.05;99102.94;5073508;28;20028;-77
2022/02/02 20:43:55;;;;;;;97.00;44.13;;;;;;;4.33;79.41;99115.50;5073589;28;20048;-76
2022/02/02 21:10:27;;;;;;;113.20;48.77;;;;;;;4.76;75.10;99101.94;5075357;28;20028;-76
2022/02/02 21:15:37;;;;;;;114.45;50.20;;;;;;;4.70;75.72;99097.25;5071793;28;20035;-76
2022/02/02 21:18:16;;;;;;;109.20;49.40;;;;;;;4.87;75.08;99115.84;5073266;28;20039;-76
2022/02/02 21:20:53;;;;;;;108.97;51.30;;;;;;;4.85;74.46;99110.75;5070900;28;20032;-76
2022/02/02 21:26:11;;;;;;;85.10;40.87;;;;;;;4.41;76.29;99128.72;5074524;28;20032;-76
2022/02/02 21:28:35;;;;;;;79.37;37.67;;;;;;;4.04;78.08;99125.91;5074910;28;20044;-76
2022/02/02 21:31:01;;;;;;;88.70;39.07;;;;;;;3.94;79.63;99130.31;5074643;28;20020;-75
2022/02/02 21:33:27;;;;;;;88.47;41.37;;;;;;;4.12;79.91;99120.00;5076943;28;20036;-76
2022/02/02 21:35:55;;;;;;;69.57;34.30;;;;;;;4.37;78.73;99122.09;5076898;28;20040;-76
2022/02/02 21:40:51;;;;;;;235.53;107.63;;;;;;;4.46;79.18;99118.66;5077200;28;20025;-76
2022/02/02 21:43:16;;;;;;;157.07;67.73;;;;;;;4.16;79.69;99116.13;5077074;28;20040;-76
2022/02/02 21:45:42;;;;;;;85.97;38.47;;;;;;;3.78;81.35;99122.13;5076351;28;20032;-76
2022/02/02 21:48:08;;;;;;;74.00;32.90;;;;;;;3.78;82.14;99114.28;5078045;28;20032;-76
2022/02/02 21:50:47;;;;;;;77.53;37.67;;;;;;;3.96;81.69;99115.28;5074470;28;20254;-76
2022/02/02 21:53:14;;;;;;;87.30;39.10;;;;;;;3.90;81.39;99118.44;5075760;28;20359;-76
2022/02/02 21:55:40;;;;;;;115.43;48.37;;;;;;;3.62;82.60;99087.78;5077339;28;20096;-76
2022/02/02 21:58:06;;;;;;;134.60;58.47;;;;;;;3.93;81.84;99123.41;5077356;28;20223;-76
2022/02/02 22:00:32;;;;;;;93.67;41.73;;;;;;;3.84;80.96;99134.69;5077027;28;20041;-76
2022/02/02 22:02:57;;;;;;;58.17;29.03;;;;;;;3.97;80.54;99129.22;5081868;28;20040;-76
2022/02/02 22:05:23;;;;;;;69.70;30.90;;;;;;;4.10;78.85;99111.44;5078696;28;20245;-76
2022/02/02 22:07:49;;;;;;;58.27;27.67;;;;;;;4.21;78.13;99126.25;5077286;28;20578;-76
2022/02/02 22:10:16;;;;;;;112.83;47.27;;;;;;;4.12;78.04;99115.59;5075080;28;20016;-76
2022/02/02 22:12:42;;;;;;;122.43;54.50;;;;;;;4.21;77.91;99127.06;5076636;28;20358;-76
2022/02/02 22:15:12;;;;;;;91.70;37.83;;;;;;;4.28;75.56;99091.47;5077431;28;20465;-76
2022/02/02 22:17:38;;;;;;;103.60;44.83;;;;;;;4.49;75.72;99141.97;5075514;28;20047;-77
2022/02/02 22:20:07;;;;;;;59.42;25.90;;;;;;;4.50;75.00;99129.69;5076614;28;20027;-77
2022/02/02 22:22:34;;;;;;;49.67;22.93;;;;;;;4.55;75.21;99151.09;5072322;28;20028;-76
2022/02/02 22:25:00;;;;;;;40.07;17.70;;;;;;;4.60;74.75;99150.66;5075225;28;20023;-76
2022/02/02 22:27:26;;;;;;;41.37;18.80;;;;;;;4.72;73.61;99152.19;5075982;28;20033;-76
2022/02/02 22:29:51;;;;;;;36.07;15.67;;;;;;;4.67;73.08;99157.00;5080736;28;20035;-76
2022/02/02 22:32:17;;;;;;;30.43;15.30;;;;;;;4.42;73.59;99126.94;5080781;28;20032;-77
2022/02/02 22:34:42;;;;;;;27.37;14.73;;;;;;;4.71;73.56;99168.88;5080533;28;20021;-76
2022/02/02 22:37:09;;;;;;;32.33;14.50;;;;;;;4.73;72.92;99151.22;5079791;28;20083;-76
2022/02/02 22:39:39;;;;;;;32.53;15.60;;;;;;;4.81;73.23;99170.53;5080828;28;20183;-77
2022/02/02 22:42:06;;;;;;;35.63;15.40;;;;;;;4.77;73.31;99169.16;5079562;28;20036;-76
2022/02/02 22:44:31;;;;;;;31.63;15.20;;;;;;;4.66;73.20;99150.13;5079731;28;20051;-76
2022/02/02 22:47:03;;;;;;;34.60;16.73;;;;;;;4.73;73.37;99172.19;5076384;28;20334;-76
2022/02/02 22:49:29;;;;;;;31.57;15.57;;;;;;;4.85;73.08;99172.88;5071824;28;20074;-76
2022/02/02 22:51:54;;;;;;;35.27;15.40;;;;;;;4.69;73.65;99158.53;5070501;28;20104;-77